sensor_id;sensor_type;location;lat;lon;timestamp;P1;durP1;ratioP1;P2;durP2;ratioP2
7989;SDS011;4040;42.848;23.034;2023-04-15T00:01:35;6.67;;;3.97;;
7989;SDS011;4040;42.848;23.034;2023-04-15T00:07:23;6.73;;;2.97;;
7989;SDS011;4040;42.848;23.034;2023-04-15T00:13:14;4.73;;;2.37;;
7989;SDS011;4040;42.848;23.034;2023-04-15T00:19:02;7.67;;;3.33;;
7989;SDS011;4040;42.848;23.034;2023-04-15T00:24:51;5.87;;;3.10;;
7989;SDS011;4040;42.848;23.034;2023-04-15T00:30:42;8.10;;;3.50;;
7989;SDS011;4040;42.848;23.034;2023-04-15T00:36:31;113.60;;;59.17;;
7989;SDS011;4040;42.848;23.034;2023-04-15T00:42:20;6.90;;;3.43;;
7989;SDS011;4040;42.848;23.034;2023-04-15T00:48:11;4.17;;;2.70;;
7989;SDS011;4040;42.848;23.034;2023-04-15T00:54:00;4.87;;;2.33;;
7989;SDS011;4040;42.848;23.034;2023-04-15T00:59:50;3.47;;;2.43;;
7989;SDS011;4040;42.848;23.034;2023-04-15T01:09:42;3.03;;;2.10;;
7989;SDS011;4040;42.848;23.034;2023-04-15T01:15:31;8.00;;;3.80;;
7989;SDS011;4040;42.848;23.034;2023-04-15T01:21:22;4.10;;;2.97;;
7989;SDS011;4040;42.848;23.034;2023-04-15T01:27:13;3.33;;;2.63;;
7989;SDS011;4040;42.848;23.034;2023-04-15T01:33:02;7.20;;;4.70;;
7989;SDS011;4040;42.848;23.034;2023-04-15T01:38:50;6.47;;;4.10;;
7989;SDS011;4040;42.848;23.034;2023-04-15T01:44:41;11.60;;;5.47;;
7989;SDS011;4040;42.848;23.034;2023-04-15T01:50:29;5.40;;;3.40;;
7989;SDS011;4040;42.848;23.034;2023-04-15T01:56:18;13.10;;;8.23;;
7989;SDS011;4040;42.848;23.034;2023-04-15T02:02:08;8.93;;;3.67;;
7989;SDS011;4040;42.848;23.034;2023-04-15T02:12:10;3.73;;;2.27;;
7989;SDS011;4040;42.848;23.034;2023-04-15T02:18:00;3.57;;;1.97;;
7989;SDS011;4040;42.848;23.034;2023-04-15T02:23:49;13.70;;;9.87;;
7989;SDS011;4040;42.848;23.034;2023-04-15T02:29:39;17.57;;;13.77;;
7989;SDS011;4040;42.848;23.034;2023-04-15T02:35:29;6.23;;;4.37;;
7989;SDS011;4040;42.848;23.034;2023-04-15T02:41:18;8.33;;;4.30;;
7989;SDS011;4040;42.848;23.034;2023-04-15T02:47:11;6.00;;;3.13;;
7989;SDS011;4040;42.848;23.034;2023-04-15T02:53:03;6.30;;;3.70;;
7989;SDS011;4040;42.848;23.034;2023-04-15T02:58:52;4.37;;;2.50;;
7989;SDS011;4040;42.848;23.034;2023-04-15T03:04:41;7.97;;;3.40;;
7989;SDS011;4040;42.848;23.034;2023-04-15T03:14:53;4.40;;;2.93;;
7989;SDS011;4040;42.848;23.034;2023-04-15T03:20:42;7.47;;;4.27;;
7989;SDS011;4040;42.848;23.034;2023-04-15T03:26:30;5.30;;;3.50;;
7989;SDS011;4040;42.848;23.034;2023-04-15T03:32:21;5.17;;;2.97;;
7989;SDS011;4040;42.848;23.034;2023-04-15T03:38:10;7.47;;;3.83;;
7989;SDS011;4040;42.848;23.034;2023-04-15T03:43:59;9.00;;;3.80;;
7989;SDS011;4040;42.848;23.034;2023-04-15T03:49:48;26.80;;;12.83;;
7989;SDS011;4040;42.848;23.034;2023-04-15T03:55:37;14.67;;;5.90;;
7989;SDS011;4040;42.848;23.034;2023-04-15T04:01:26;6.10;;;3.60;;
7989;SDS011;4040;42.848;23.034;2023-04-15T04:07:16;6.20;;;4.23;;
7989;SDS011;4040;42.848;23.034;2023-04-15T04:17:27;4.60;;;2.93;;
7989;SDS011;4040;42.848;23.034;2023-04-15T04:23:17;4.20;;;2.60;;
7989;SDS011;4040;42.848;23.034;2023-04-15T04:29:06;8.63;;;3.10;;
7989;SDS011;4040;42.848;23.034;2023-04-15T04:34:55;10.87;;;7.53;;
7989;SDS011;4040;42.848;23.034;2023-04-15T04:40:44;8.83;;;4.07;;
7989;SDS011;4040;42.848;23.034;2023-04-15T04:46:33;3.43;;;1.80;;
7989;SDS011;4040;42.848;23.034;2023-04-15T04:52:22;8.43;;;4.00;;
7989;SDS011;4040;42.848;23.034;2023-04-15T04:58:12;4.03;;;2.50;;
7989;SDS011;4040;42.848;23.034;2023-04-15T05:04:00;4.80;;;1.90;;
7989;SDS011;4040;42.848;23.034;2023-04-15T05:09:50;3.83;;;2.33;;
7989;SDS011;4040;42.848;23.034;2023-04-15T05:20:02;8.70;;;5.10;;
7989;SDS011;4040;42.848;23.034;2023-04-15T05:25:52;7.50;;;3.83;;
7989;SDS011;4040;42.848;23.034;2023-04-15T05:31:41;7.03;;;4.03;;
7989;SDS011;4040;42.848;23.034;2023-04-15T05:37:31;6.73;;;2.40;;
7989;SDS011;4040;42.848;23.034;2023-04-15T05:43:20;16.52;;;8.38;;
7989;SDS011;4040;42.848;23.034;2023-04-15T05:49:09;8.23;;;4.47;;
7989;SDS011;4040;42.848;23.034;2023-04-15T05:54:59;8.32;;;4.10;;
7989;SDS011;4040;42.848;23.034;2023-04-15T06:00:48;32.05;;;14.07;;
7989;SDS011;4040;42.848;23.034;2023-04-15T06:06:37;8.20;;;3.22;;
7989;SDS011;4040;42.848;23.034;2023-04-15T06:12:27;5.38;;;3.08;;
7989;SDS011;4040;42.848;23.034;2023-04-15T06:22:38;10.13;;;4.90;;
7989;SDS011;4040;42.848;23.034;2023-04-15T06:28:28;6.72;;;3.45;;
7989;SDS011;4040;42.848;23.034;2023-04-15T06:34:17;4.38;;;2.13;;
7989;SDS011;4040;42.848;23.034;2023-04-15T06:40:06;4.75;;;3.13;;
7989;SDS011;4040;42.848;23.034;2023-04-15T06:45:58;7.82;;;3.53;;
7989;SDS011;4040;42.848;23.034;2023-04-15T06:51:46;2.83;;;1.90;;
7989;SDS011;4040;42.848;23.034;2023-04-15T06:57:36;3.85;;;2.17;;
7989;SDS011;4040;42.848;23.034;2023-04-15T07:03:26;7.05;;;2.60;;
7989;SDS011;4040;42.848;23.034;2023-04-15T07:09:24;4.30;;;2.22;;
7989;SDS011;4040;42.848;23.034;2023-04-15T07:15:13;3.97;;;1.77;;
7989;SDS011;4040;42.848;23.034;2023-04-15T07:25:25;4.60;;;1.55;;
7989;SDS011;4040;42.848;23.034;2023-04-15T07:31:14;5.40;;;2.83;;
7989;SDS011;4040;42.848;23.034;2023-04-15T07:37:03;5.28;;;1.80;;
7989;SDS011;4040;42.848;23.034;2023-04-15T07:42:53;3.17;;;1.20;;
7989;SDS011;4040;42.848;23.034;2023-04-15T07:48:44;2.88;;;1.50;;
7989;SDS011;4040;42.848;23.034;2023-04-15T07:54:33;3.28;;;1.45;;
7989;SDS011;4040;42.848;23.034;2023-04-15T08:00:23;3.25;;;1.40;;
7989;SDS011;4040;42.848;23.034;2023-04-15T08:06:12;3.83;;;1.40;;
7989;SDS011;4040;42.848;23.034;2023-04-15T08:12:01;3.20;;;1.52;;
7989;SDS011;4040;42.848;23.034;2023-04-15T08:17:52;2.90;;;1.48;;
7989;SDS011;4040;42.848;23.034;2023-04-15T08:28:04;2.80;;;1.35;;
7989;SDS011;4040;42.848;23.034;2023-04-15T08:33:54;1.90;;;1.38;;
7989;SDS011;4040;42.848;23.034;2023-04-15T08:39:44;4.88;;;1.27;;
7989;SDS011;4040;42.848;23.034;2023-04-15T08:45:33;3.88;;;1.23;;
7989;SDS011;4040;42.848;23.034;2023-04-15T08:51:27;6.07;;;2.00;;
7989;SDS011;4040;42.848;23.034;2023-04-15T08:57:16;1.88;;;0.90;;
7989;SDS011;4040;42.848;23.034;2023-04-15T09:03:05;2.97;;;1.00;;
7989;SDS011;4040;42.848;23.034;2023-04-15T09:08:55;1.88;;;1.08;;
7989;SDS011;4040;42.848;23.034;2023-04-15T09:14:44;2.05;;;1.00;;
7989;SDS011;4040;42.848;23.034;2023-04-15T09:20:37;2.55;;;1.60;;
7989;SDS011;4040;42.848;23.034;2023-04-15T09:30:52;2.42;;;1.40;;
7989;SDS011;4040;42.848;23.034;2023-04-15T09:36:53;3.00;;;1.40;;
7989;SDS011;4040;42.848;23.034;2023-04-15T09:42:53;2.15;;;1.17;;
7989;SDS011;4040;42.848;23.034;2023-04-15T09:48:43;4.55;;;1.30;;
7989;SDS011;4040;42.848;23.034;2023-04-15T09:54:33;1.58;;;1.23;;
7989;SDS011;4040;42.848;23.034;2023-04-15T10:00:22;6.05;;;2.47;;
7989;SDS011;4040;42.848;23.034;2023-04-15T10:06:13;0.82;;;0.70;;
7989;SDS011;4040;42.848;23.034;2023-04-15T10:12:02;1.50;;;1.00;;
7989;SDS011;4040;42.848;23.034;2023-04-15T10:17:52;3.70;;;1.00;;
7989;SDS011;4040;42.848;23.034;2023-04-15T10:23:43;2.53;;;1.50;;
7989;SDS011;4040;42.848;23.034;2023-04-15T10:33:54;1.45;;;1.10;;
7989;SDS011;4040;42.848;23.034;2023-04-15T10:39:46;1.48;;;1.15;;
7989;SDS011;4040;42.848;23.034;2023-04-15T10:45:35;4.18;;;1.17;;
7989;SDS011;4040;42.848;23.034;2023-04-15T10:51:28;2.65;;;1.67;;
7989;SDS011;4040;42.848;23.034;2023-04-15T10:57:22;2.63;;;0.70;;
7989;SDS011;4040;42.848;23.034;2023-04-15T11:03:11;2.22;;;1.48;;
7989;SDS011;4040;42.848;23.034;2023-04-15T11:08:59;1.02;;;0.80;;
7989;SDS011;4040;42.848;23.034;2023-04-15T11:14:53;3.90;;;1.10;;
7989;SDS011;4040;42.848;23.034;2023-04-15T11:20:43;2.15;;;1.00;;
7989;SDS011;4040;42.848;23.034;2023-04-15T11:26:33;1.35;;;1.02;;
7989;SDS011;4040;42.848;23.034;2023-04-15T11:36:45;2.00;;;0.80;;
7989;SDS011;4040;42.848;23.034;2023-04-15T11:42:34;1.02;;;0.80;;
7989;SDS011;4040;42.848;23.034;2023-04-15T11:48:24;1.48;;;1.13;;
7989;SDS011;4040;42.848;23.034;2023-04-15T11:54:18;4.30;;;1.77;;
7989;SDS011;4040;42.848;23.034;2023-04-15T12:00:08;1.63;;;1.10;;
7989;SDS011;4040;42.848;23.034;2023-04-15T12:06:14;2.45;;;0.80;;
7989;SDS011;4040;42.848;23.034;2023-04-15T12:12:06;1.52;;;0.82;;
7989;SDS011;4040;42.848;23.034;2023-04-15T12:17:57;1.27;;;0.90;;
7989;SDS011;4040;42.848;23.034;2023-04-15T12:23:49;2.55;;;0.88;;
7989;SDS011;4040;42.848;23.034;2023-04-15T12:29:40;1.00;;;0.90;;
7989;SDS011;4040;42.848;23.034;2023-04-15T12:39:52;1.08;;;0.70;;
7989;SDS011;4040;42.848;23.034;2023-04-15T12:45:42;1.65;;;0.88;;
7989;SDS011;4040;42.848;23.034;2023-04-15T12:51:31;1.35;;;0.88;;
7989;SDS011;4040;42.848;23.034;2023-04-15T12:57:20;3.22;;;1.15;;
7989;SDS011;4040;42.848;23.034;2023-04-15T13:03:10;1.83;;;0.95;;
7989;SDS011;4040;42.848;23.034;2023-04-15T13:08:59;1.38;;;0.93;;
7989;SDS011;4040;42.848;23.034;2023-04-15T13:14:48;0.65;;;0.65;;
7989;SDS011;4040;42.848;23.034;2023-04-15T13:20:39;1.70;;;0.90;;
7989;SDS011;4040;42.848;23.034;2023-04-15T13:26:28;2.78;;;0.88;;
7989;SDS011;4040;42.848;23.034;2023-04-15T13:32:17;2.38;;;1.20;;
7989;SDS011;4040;42.848;23.034;2023-04-15T13:42:29;11.20;;;4.55;;
7989;SDS011;4040;42.848;23.034;2023-04-15T13:48:17;7.18;;;3.22;;
7989;SDS011;4040;42.848;23.034;2023-04-15T13:54:06;3.55;;;1.27;;
7989;SDS011;4040;42.848;23.034;2023-04-15T13:59:58;1.85;;;1.10;;
7989;SDS011;4040;42.848;23.034;2023-04-15T14:05:46;1.83;;;1.05;;
7989;SDS011;4040;42.848;23.034;2023-04-15T14:11:39;4.53;;;1.58;;
7989;SDS011;4040;42.848;23.034;2023-04-15T14:17:30;1.70;;;1.40;;
7989;SDS011;4040;42.848;23.034;2023-04-15T14:23:20;2.95;;;1.50;;
7989;SDS011;4040;42.848;23.034;2023-04-15T14:29:09;4.13;;;1.77;;
7989;SDS011;4040;42.848;23.034;2023-04-15T14:35:00;1.30;;;1.02;;
7989;SDS011;4040;42.848;23.034;2023-04-15T14:45:12;4.28;;;1.80;;
7989;SDS011;4040;42.848;23.034;2023-04-15T14:51:02;2.50;;;1.00;;
7989;SDS011;4040;42.848;23.034;2023-04-15T14:56:51;2.45;;;1.60;;
7989;SDS011;4040;42.848;23.034;2023-04-15T15:02:40;1.17;;;0.90;;
7989;SDS011;4040;42.848;23.034;2023-04-15T15:08:30;3.80;;;1.67;;
7989;SDS011;4040;42.848;23.034;2023-04-15T15:14:19;1.05;;;0.80;;
7989;SDS011;4040;42.848;23.034;2023-04-15T15:20:08;0.75;;;0.75;;
7989;SDS011;4040;42.848;23.034;2023-04-15T15:25:59;2.08;;;1.10;;
7989;SDS011;4040;42.848;23.034;2023-04-15T15:31:48;4.63;;;2.65;;
7989;SDS011;4040;42.848;23.034;2023-04-15T15:37:37;7.15;;;2.47;;
7989;SDS011;4040;42.848;23.034;2023-04-15T15:47:49;1.27;;;1.00;;
7989;SDS011;4040;42.848;23.034;2023-04-15T15:53:37;1.38;;;1.00;;
7989;SDS011;4040;42.848;23.034;2023-04-15T15:59:26;6.97;;;3.00;;
7989;SDS011;4040;42.848;23.034;2023-04-15T16:05:16;4.28;;;2.67;;
7989;SDS011;4040;42.848;23.034;2023-04-15T16:11:05;3.25;;;2.05;;
7989;SDS011;4040;42.848;23.034;2023-04-15T16:16:54;4.07;;;1.60;;
7989;SDS011;4040;42.848;23.034;2023-04-15T16:22:44;3.40;;;2.38;;
7989;SDS011;4040;42.848;23.034;2023-04-15T16:28:33;3.30;;;2.13;;
7989;SDS011;4040;42.848;23.034;2023-04-15T16:34:22;8.68;;;4.78;;
7989;SDS011;4040;42.848;23.034;2023-04-15T16:40:13;7.13;;;4.55;;
7989;SDS011;4040;42.848;23.034;2023-04-15T16:50:24;14.30;;;7.88;;
7989;SDS011;4040;42.848;23.034;2023-04-15T16:56:15;46.65;;;19.98;;
7989;SDS011;4040;42.848;23.034;2023-04-15T17:02:03;80.80;;;28.38;;
7989;SDS011;4040;42.848;23.034;2023-04-15T17:07:52;95.63;;;32.67;;
7989;SDS011;4040;42.848;23.034;2023-04-15T17:13:43;36.28;;;14.70;;
7989;SDS011;4040;42.848;23.034;2023-04-15T17:19:31;39.38;;;16.88;;
7989;SDS011;4040;42.848;23.034;2023-04-15T17:25:20;40.67;;;18.17;;
7989;SDS011;4040;42.848;23.034;2023-04-15T17:31:11;61.07;;;22.93;;
7989;SDS011;4040;42.848;23.034;2023-04-15T17:36:59;68.00;;;24.73;;
7989;SDS011;4040;42.848;23.034;2023-04-15T17:42:48;43.53;;;18.83;;
7989;SDS011;4040;42.848;23.034;2023-04-15T17:53:00;18.00;;;6.80;;
7989;SDS011;4040;42.848;23.034;2023-04-15T17:58:49;10.60;;;3.70;;
7989;SDS011;4040;42.848;23.034;2023-04-15T18:04:39;36.03;;;15.40;;
7989;SDS011;4040;42.848;23.034;2023-04-15T18:10:29;12.03;;;6.40;;
7989;SDS011;4040;42.848;23.034;2023-04-15T18:16:18;28.93;;;13.70;;
7989;SDS011;4040;42.848;23.034;2023-04-15T18:22:06;27.80;;;13.40;;
7989;SDS011;4040;42.848;23.034;2023-04-15T18:27:57;26.83;;;15.23;;
7989;SDS011;4040;42.848;23.034;2023-04-15T18:33:45;16.47;;;7.73;;
7989;SDS011;4040;42.848;23.034;2023-04-15T18:39:34;18.53;;;8.60;;
7989;SDS011;4040;42.848;23.034;2023-04-15T18:45:25;45.97;;;19.10;;
7989;SDS011;4040;42.848;23.034;2023-04-15T18:55:37;54.90;;;25.40;;
7989;SDS011;4040;42.848;23.034;2023-04-15T19:01:27;44.67;;;19.67;;
7989;SDS011;4040;42.848;23.034;2023-04-15T19:07:16;82.00;;;30.53;;
7989;SDS011;4040;42.848;23.034;2023-04-15T19:13:05;75.43;;;30.33;;
7989;SDS011;4040;42.848;23.034;2023-04-15T19:18:56;27.33;;;11.97;;
7989;SDS011;4040;42.848;23.034;2023-04-15T19:24:44;10.53;;;4.73;;
7989;SDS011;4040;42.848;23.034;2023-04-15T19:30:33;47.67;;;17.60;;
7989;SDS011;4040;42.848;23.034;2023-04-15T19:36:23;40.00;;;16.57;;
7989;SDS011;4040;42.848;23.034;2023-04-15T19:42:14;22.80;;;11.60;;
7989;SDS011;4040;42.848;23.034;2023-04-15T19:48:03;15.33;;;8.03;;
7989;SDS011;4040;42.848;23.034;2023-04-15T19:58:15;74.43;;;23.10;;
7989;SDS011;4040;42.848;23.034;2023-04-15T20:04:04;14.10;;;7.60;;
7989;SDS011;4040;42.848;23.034;2023-04-15T20:09:54;10.83;;;5.80;;
7989;SDS011;4040;42.848;23.034;2023-04-15T20:15:44;27.53;;;12.40;;
7989;SDS011;4040;42.848;23.034;2023-04-15T20:21:33;75.50;;;25.13;;
7989;SDS011;4040;42.848;23.034;2023-04-15T20:27:22;38.30;;;17.73;;
7989;SDS011;4040;42.848;23.034;2023-04-15T20:33:12;17.33;;;9.10;;
7989;SDS011;4040;42.848;23.034;2023-04-15T20:39:01;16.17;;;8.10;;
7989;SDS011;4040;42.848;23.034;2023-04-15T20:44:50;31.47;;;12.80;;
7989;SDS011;4040;42.848;23.034;2023-04-15T20:50:41;39.73;;;11.97;;
7989;SDS011;4040;42.848;23.034;2023-04-15T21:00:52;16.77;;;8.03;;
7989;SDS011;4040;42.848;23.034;2023-04-15T21:06:42;30.33;;;13.33;;
7989;SDS011;4040;42.848;23.034;2023-04-15T21:12:31;10.50;;;6.27;;
7989;SDS011;4040;42.848;23.034;2023-04-15T21:18:20;11.70;;;4.23;;
7989;SDS011;4040;42.848;23.034;2023-04-15T21:24:10;7.43;;;3.93;;
7989;SDS011;4040;42.848;23.034;2023-04-15T21:29:59;9.90;;;4.20;;
7989;SDS011;4040;42.848;23.034;2023-04-15T21:35:47;4.60;;;2.50;;
7989;SDS011;4040;42.848;23.034;2023-04-15T21:41:38;6.23;;;3.60;;
7989;SDS011;4040;42.848;23.034;2023-04-15T21:47:27;11.13;;;6.10;;
7989;SDS011;4040;42.848;23.034;2023-04-15T21:53:16;5.90;;;3.70;;
7989;SDS011;4040;42.848;23.034;2023-04-15T22:08:31;13.63;;;5.80;;
7989;SDS011;4040;42.848;23.034;2023-04-15T22:14:20;14.83;;;7.00;;
7989;SDS011;4040;42.848;23.034;2023-04-15T22:20:09;11.13;;;5.17;;
7989;SDS011;4040;42.848;23.034;2023-04-15T22:26:00;5.13;;;3.23;;
7989;SDS011;4040;42.848;23.034;2023-04-15T22:31:50;5.57;;;3.97;;
7989;SDS011;4040;42.848;23.034;2023-04-15T22:37:39;6.33;;;4.03;;
7989;SDS011;4040;42.848;23.034;2023-04-15T22:43:29;7.03;;;4.37;;
7989;SDS011;4040;42.848;23.034;2023-04-15T22:49:18;8.10;;;4.03;;
7989;SDS011;4040;42.848;23.034;2023-04-15T22:55:07;8.87;;;4.43;;
7989;SDS011;4040;42.848;23.034;2023-04-15T23:00:58;9.93;;;4.13;;
7989;SDS011;4040;42.848;23.034;2023-04-15T23:11:08;5.50;;;3.43;;
7989;SDS011;4040;42.848;23.034;2023-04-15T23:16:59;18.70;;;7.97;;
7989;SDS011;4040;42.848;23.034;2023-04-15T23:22:48;13.23;;;6.53;;
7989;SDS011;4040;42.848;23.034;2023-04-15T23:28:36;6.90;;;3.33;;
7989;SDS011;4040;42.848;23.034;2023-04-15T23:34:27;7.37;;;3.60;;
7989;SDS011;4040;42.848;23.034;2023-04-15T23:40:15;4.90;;;2.60;;
7989;SDS011;4040;42.848;23.034;2023-04-15T23:46:04;5.77;;;2.77;;
7989;SDS011;4040;42.848;23.034;2023-04-15T23:51:55;5.63;;;2.67;;
7989;SDS011;4040;42.848;23.034;2023-04-15T23:57:44;6.50;;;3.17;;
